U.S. Weather Extremes for
Sunday, October 14, 2018

High Temperature


95°F at Mcallen/Miller Intl, TX

Low Temperature


1°F at Yellowstone (ramos), WY

High Precipitation


1.62in at Lufkin/Angelina Co, TX


Data for lower 48 states and courtesy of
NWS-CPC

North Georgia & Southern Appalachians METAR Reports

KDZJ - Blairsville, Georgia, USA
Distance from station: NNW 11mi, 18km
Updated: Mon, 15-Oct-2018 9:55am CDT
Mostly Cloudy
Mostly Cloudy
 Wind from SW
Wind:
SW 6 mph 9 km/h
Temperature: 68°F , 20°C
Dew Point: 61°F , 16°C
Humidity: 78%
Barometer: 30.24 inHg , 1024 hPa
Clouds: Mostly Cloudy
Visibility: 10 miles , 16 km
Cloud details: Partly Cloudy 2200 ft
Partly Cloudy 2800 ft
Mostly Cloudy 3800 ft
2018/10/15 14:55 KDZJ 151455Z AUTO 22005KT 10SM SCT022 SCT028 BKN038 20/16 A3024 RMK AO2 T02050162
KAJR - Cornelia, Georgia, USA
Distance from station: SE 25mi, 41km
Updated: Mon, 15-Oct-2018 9:55am CDT
Overcast
Overcast
 Wind from WSW
Wind:
WSW 7 mph 11 km/h
Temperature: 70°F , 21°C
Dew Point: 63°F , 17°C
Humidity: 78%
Barometer: 30.22 inHg , 1023.4 hPa
Clouds: Overcast
Visibility: 7 miles , 11 km
Cloud details: Overcast 1400 ft
2018/10/15 14:55 KAJR 151455Z AUTO 25006KT 7SM OVC014 21/17 A3022 RMK AO2 T02090166
 
KGVL - Gainesville, Georgia, USA
Distance from station: S 31mi, 50km
Updated: Mon, 15-Oct-2018 9:53am CDT
Overcast
Overcast
 Wind from E
Wind:
E 3 mph 6 km/h
Temperature: 66°F , 19°C
Dew Point: 63°F , 17°C
Humidity: 88%
Barometer: 30.23 inHg , 1023.7 hPa
Clouds: Overcast
Visibility: 10 miles , 16 km
Cloud details: Overcast 1200 ft
2018/10/15 14:53 KGVL 151453Z AUTO 09003KT 10SM OVC012 19/17 A3023 RMK AO2 SLP226 T01890172 50010
KRHP - Andrews, North Carolina, USA
Distance from station: N 33mi, 53km
Updated: Mon, 15-Oct-2018 10:00am CDT
Mostly Cloudy
Mostly Cloudy
 Wind from SSW
Wind:
SSW 3 mph 6 km/h
Temperature: 72°F , 22°C
Dew Point: 63°F , 17°C
Humidity: 73%
Barometer: 30.21 inHg , 1023 hPa
Clouds: Mostly Cloudy
Visibility: 10 miles , 16 km
Cloud details: Mostly Cloudy 3400 ft
2018/10/15 15:00 KRHP 151500Z AUTO 20003KT 10SM BKN034 22/17 A3021 RMK AO2 T02150165
 
KJZP - Jasper, Georgia, USA
Distance from station: WSW 35mi, 57km
Updated: Mon, 15-Oct-2018 9:55am CDT
Overcast
Overcast
 Wind from S
Wind:
S 7 mph 11 km/h
Temperature: 66°F , 19°C
Dew Point: 63°F , 17°C
Humidity: 88%
Barometer: 30.24 inHg , 1024 hPa
Clouds: Overcast
Visibility: 10 miles , 16 km
Cloud details: Overcast 900 ft
2018/10/15 14:55 KJZP 151455Z AUTO 19006KT 10SM OVC009 19/17 A3024 RMK AO2 6//// T01930171 PNO
KTOC - Toccoa, Georgia, USA
Distance from station: E 36mi, 58km
Updated: Mon, 15-Oct-2018 9:55am CDT
Overcast
Overcast
 Wind from calm
Wind:
Calm
Temperature: 68°F , 20°C
Dew Point: 61°F , 16°C
Humidity: 78%
Barometer: 30.21 inHg , 1023 hPa
Clouds: Overcast
Cloud details: Mostly Cloudy 1600 ft
Overcast 2100 ft
2018/10/15 14:55 KTOC 151455Z AUTO 00000KT BKN016 OVC021 20/16 A3021 RMK AO2 T02030161 PWINO
 
KCNI - Canton/Cherokee, Georgia, USA
Distance from station: SW 39mi, 63km
Updated: Mon, 15-Oct-2018 9:50am CDT
Overcast
Overcast
 Wind from ESE
Wind:
ESE 5 mph 7 km/h
Temperature: 70°F , 21°C
Dew Point: 61°F , 16°C
Humidity: 73%
Barometer: 30.21 inHg , 1023 hPa
Clouds: Overcast
Visibility: 10 miles , 16 km
Cloud details: Overcast 900 ft
2018/10/15 14:50 KCNI 151450Z AUTO 12004KT 10SM OVC009 21/16 A3021 RMK AO2
KJCA - Jefferson, Georgia, USA
Distance from station: SSE 41mi, 67km
Updated: Mon, 15-Oct-2018 9:55am CDT
Overcast
Overcast
 Wind from E
Wind:
E 5 mph 7 km/h
Temperature: 66°F , 19°C
Dew Point: 61°F , 16°C
Humidity: 83%
Barometer: 30.22 inHg , 1023.4 hPa
Clouds: Overcast
Visibility: 10 miles , 16 km
Cloud details: Overcast 700 ft
2018/10/15 14:55 KJCA 151455Z AUTO 08004KT 10SM OVC007 19/16 A3022 RMK AO2 T01900165
 
K1A5 - Macon/Franklin, North Carolina, USA
Distance from station: NE 45mi, 73km
Updated: Mon, 15-Oct-2018 10:00am CDT
Partly Cloudy
Partly Cloudy
 Wind from SE
Wind:
SE 3 mph 6 km/h
Temperature: 72°F , 22°C
Dew Point: 68°F , 20°C
Humidity: 88%
Barometer: 30.22 inHg , 1023.4 hPa
Clouds: Partly Cloudy
Visibility: 10 miles , 16 km
Cloud details: Partly Cloudy 2500 ft
Partly Cloudy 3200 ft
2018/10/15 15:00 K1A5 151500Z AUTO 14003KT 10SM SCT025 SCT032 22/20 A3022 RMK AO2 T02180197
KLZU - Lawrenceville, Georgia, USA
Distance from station: S 50mi, 81km
Updated: Mon, 15-Oct-2018 9:56am CDT
Overcast
Overcast
 Wind from E
Wind:
E 5 mph 7 km/h
Temperature: 68°F , 20°C
Dew Point: 63°F , 17°C
Humidity: 83%
Barometer: 30.21 inHg , 1023 hPa
Clouds: Overcast
Visibility: 10 miles , 16 km
Cloud details: Overcast 1200 ft
2018/10/15 14:56 KLZU 151456Z 08004KT 10SM OVC012 20/17 A3021 RMK AO2 SLP233 T02000172 50005
 
K18A - Canon/Franklin, Georgia, USA
Distance from station: ESE 51mi, 82km
Updated: Mon, 15-Oct-2018 9:55am CDT
Overcast
Overcast
 Wind from calm
Wind:
Calm
Temperature: 66°F , 19°C
Dew Point: 61°F , 16°C
Humidity: 83%
Barometer: 30.22 inHg , 1023.4 hPa
Clouds: Overcast
Visibility: 10 miles , 16 km
Cloud details: Overcast 800 ft
2018/10/15 14:55 K18A 151455Z AUTO 00000KT 10SM OVC008 19/16 A3022 RMK AO2 T01920161
KWDR - Winder/Barrow, Georgia, USA
Distance from station: SSE 52mi, 84km
Updated: Mon, 15-Oct-2018 9:55am CDT
Overcast
Overcast
 Wind from calm
Wind:
Calm
Temperature: 68°F , 20°C
Dew Point: 63°F , 17°C
Humidity: 83%
Barometer: 30.24 inHg , 1024 hPa
Clouds: Overcast
Visibility: 10 miles , 16 km
Cloud details: Overcast 600 ft
2018/10/15 14:55 KWDR 151455Z AUTO 00000KT 10SM OVC006 20/17 A3024 RMK AO1
 
KDNN - Dalton, Georgia, USA
Distance from station: W 54mi, 87km
Updated: Mon, 15-Oct-2018 9:55am CDT
Overcast
Overcast
 Wind from SSE
Wind:
SSE 6 mph 9 km/h
Temperature: 70°F , 21°C
Dew Point: 64°F , 18°C
Humidity: 83%
Barometer: 30.19 inHg , 1022.4 hPa
Clouds: Overcast
Visibility: 10 miles , 16 km
Cloud details: Overcast 2100 ft
2018/10/15 14:55 KDNN 151455Z AUTO 16005KT 10SM OVC021 21/18 A3019 RMK AO2
K24A - Sylva, North Carolina, USA
Distance from station: NE 58mi, 93km
Updated: Mon, 15-Oct-2018 10:00am CDT
Mostly Cloudy
Mostly Cloudy
 Wind from calm
Wind:
Calm
Temperature: 64°F , 18°C
Dew Point: 59°F , 15°C
Humidity: 83%
Barometer: 30.26 inHg , 1024.7 hPa
Clouds: Mostly Cloudy
Visibility: 10 miles , 16 km
Cloud details: Partly Cloudy 2100 ft
Mostly Cloudy 2700 ft
Mostly Cloudy 3300 ft
2018/10/15 15:00 K24A 151500Z AUTO 00000KT 10SM SCT021 BKN027 BKN033 18/15 A3026 RMK AO2 T01840153
 
KCEU - Clemson, South Carolina, USA
Distance from station: E 59mi, 95km
Updated: Mon, 15-Oct-2018 9:54am CDT
Mostly Cloudy
Mostly Cloudy
 Wind from WNW
Wind:
WNW 3 mph 6 km/h
Temperature: 72°F , 22°C
Dew Point: 63°F , 17°C
Humidity: 73%
Barometer: 30.22 inHg , 1023.4 hPa
Clouds: Mostly Cloudy
Visibility: 10 miles , 16 km
Cloud details: Mostly Cloudy 2600 ft
2018/10/15 14:54 KCEU 151454Z AUTO 29003KT 10SM BKN026 22/17 A3022 RMK AO2 SLP226 T02170172 50007
KMMI - Athens/Mcminn, Tennessee, USA
Distance from station: NW 60mi, 97km
Updated: Mon, 15-Oct-2018 9:55am CDT
Mostly Cloudy
Mostly Cloudy
 Wind from W
Wind:
W 5 mph 7 km/h
Temperature: 72°F , 22°C
Dew Point: 63°F , 17°C
Humidity: 73%
Barometer: 30.18 inHg , 1022 hPa
Clouds: Mostly Cloudy
Visibility: 10 miles , 16 km
Cloud details: Mostly Cloudy 2900 ft
Mostly Cloudy 5000 ft
2018/10/15 14:55 KMMI 151455Z AUTO 26004KT 10SM BKN029 BKN050 22/17 A3018 RMK A01
 
KCZL - Calhoun, Georgia, USA
Distance from station: WSW 61mi, 97km
Updated: Mon, 15-Oct-2018 9:55am CDT
Overcast
Overcast
 Wind from S
Wind:
S 7 mph 11 km/h
Temperature: 70°F , 21°C
Dew Point: 64°F , 18°C
Humidity: 83%
Barometer: 30.19 inHg , 1022.4 hPa
Clouds: Overcast
Visibility: 10 miles , 16 km
Cloud details: Overcast 1400 ft
2018/10/15 14:55 KCZL 151455Z AUTO 19006KT 10SM OVC014 21/18 A3019 RMK AO2
KPDK - Peachtree/Dekalb, Georgia, USA
Distance from station: SSW 61mi, 98km
Updated: Mon, 15-Oct-2018 9:53am CDT
Overcast
Overcast
 Wind from calm
Wind:
Calm
Temperature: 68°F , 20°C
Dew Point: 63°F , 17°C
Humidity: 83%
Barometer: 30.19 inHg , 1022.4 hPa
Clouds: Overcast
Visibility: 8 miles , 13 km
Cloud details: Overcast 700 ft
2018/10/15 14:53 KPDK 151453Z 00000KT 8SM OVC007 20/17 A3019 RMK AO2 SLP213 T02000172 50009
 
KRZR - Cleveland Reg., Tennessee, USA
Distance from station: NW 61mi, 98km
Updated: Mon, 15-Oct-2018 9:55am CDT
Few Clouds
Few Clouds
 Wind from SSW
Wind:
SSW 14 mph 22 km/h
, Gust: 21 mph 33 km/h
Temperature: 73°F , 23°C
Dew Point: 66°F , 19°C
Humidity: 78%
Barometer: 30.14 inHg , 1020.7 hPa
Clouds: Few Clouds
Visibility: 10 miles , 16 km
Cloud details: Few Clouds 4800 ft
2018/10/15 14:55 KRZR 151455Z AUTO 21012G18KT 10SM FEW048 23/19 A3014 RMK A01
KRYY - Marietta Mccolum, Georgia, USA
Distance from station: SW 62mi, 99km
Updated: Mon, 15-Oct-2018 9:48am CDT
Overcast
Overcast
 Wind from varies
Wind:
varies 5 mph 7 km/h
Temperature: 70°F , 21°C
Dew Point: 64°F , 18°C
Humidity: 83%
Barometer: 30.19 inHg , 1022.4 hPa
Clouds: Overcast
Visibility: 10 miles , 16 km
Cloud details: Overcast 1100 ft
2018/10/15 14:48 KRYY 151448Z VRB04KT 10SM OVC011 21/18 A3019 RMK AO2 SLP944 T02110183 50010

Metar display script from Saratoga-Weather.org